createdAt,value
2018-12-31T00:01:01.542Z,4.44
2018-12-31T00:03:29.964Z,4.43
2018-12-31T00:05:58.458Z,4.43
2018-12-31T00:08:26.837Z,4.43
2018-12-31T00:10:55.282Z,4.43
2018-12-31T00:13:23.702Z,4.47
2018-12-31T00:15:52.152Z,4.53
2018-12-31T00:18:20.579Z,4.51
2018-12-31T00:20:48.999Z,4.51
2018-12-31T00:23:17.448Z,4.50
2018-12-31T00:25:45.886Z,4.51
2018-12-31T00:28:14.318Z,4.51
2018-12-31T00:30:42.741Z,4.48
2018-12-31T00:33:11.187Z,4.48
2018-12-31T00:35:39.684Z,4.45
2018-12-31T00:38:08.138Z,4.43
2018-12-31T00:40:36.555Z,4.35
2018-12-31T00:43:05.002Z,4.35
2018-12-31T00:45:33.436Z,4.23
2018-12-31T00:48:01.883Z,4.12
2018-12-31T00:50:30.302Z,4.12
2018-12-31T00:52:58.755Z,4.09
2018-12-31T00:55:27.180Z,4.09
2018-12-31T00:57:55.624Z,4.07
2018-12-31T01:00:24.047Z,4.01
2018-12-31T01:02:52.495Z,4.01
2018-12-31T01:05:20.912Z,4.06
2018-12-31T01:07:49.355Z,4.20
2018-12-31T01:10:17.781Z,4.23
2018-12-31T01:12:46.229Z,4.23
2018-12-31T01:15:14.651Z,4.31
2018-12-31T01:17:43.125Z,4.31
2018-12-31T01:20:11.601Z,4.30
2018-12-31T01:22:40.027Z,4.29
2018-12-31T01:25:08.476Z,4.32
2018-12-31T01:27:36.890Z,4.32
2018-12-31T01:30:06.787Z,4.37
2018-12-31T01:32:35.201Z,4.40
2018-12-31T01:35:03.728Z,4.41
2018-12-31T01:37:32.143Z,4.41
2018-12-31T01:40:00.597Z,4.42
2018-12-31T01:42:29.011Z,4.44
2018-12-31T01:44:57.455Z,4.44
2018-12-31T01:47:25.878Z,4.43
2018-12-31T01:49:54.331Z,4.44
2018-12-31T01:52:22.761Z,4.44
2018-12-31T01:54:51.200Z,4.43
2018-12-31T01:57:19.696Z,4.41
2018-12-31T01:59:48.157Z,4.41
2018-12-31T02:02:25.914Z,4.36
2018-12-31T02:04:54.446Z,4.40
2018-12-31T02:07:22.869Z,4.40
2018-12-31T02:09:51.286Z,4.42
2018-12-31T02:12:19.731Z,4.41
2018-12-31T02:14:48.164Z,4.45
2018-12-31T02:17:16.605Z,4.45
2018-12-31T02:19:45.027Z,4.51
2018-12-31T02:22:13.545Z,4.51
2018-12-31T02:24:41.967Z,4.52
2018-12-31T02:27:10.410Z,4.53
2018-12-31T02:29:38.831Z,4.53
2018-12-31T02:32:07.340Z,4.53
2018-12-31T02:34:35.760Z,4.54
2018-12-31T02:37:04.210Z,4.50
2018-12-31T02:39:32.629Z,4.55
2018-12-31T02:42:01.080Z,4.55
2018-12-31T02:44:29.495Z,4.56
2018-12-31T02:46:57.948Z,4.57
2018-12-31T02:49:26.481Z,4.63
2018-12-31T02:51:57.575Z,4.63
2018-12-31T02:54:25.992Z,4.62
2018-12-31T02:56:54.442Z,4.62
2018-12-31T02:59:22.855Z,4.66
2018-12-31T03:01:51.300Z,4.64
2018-12-31T03:04:19.723Z,4.67
2018-12-31T03:06:48.188Z,4.67
2018-12-31T03:09:16.599Z,4.73
2018-12-31T03:11:45.025Z,4.74
2018-12-31T03:14:13.474Z,4.74
2018-12-31T03:16:41.898Z,4.82
2018-12-31T03:19:10.346Z,4.82
2018-12-31T03:21:38.771Z,4.83
2018-12-31T03:24:07.212Z,4.82
2018-12-31T03:26:35.633Z,4.90
2018-12-31T03:29:04.080Z,4.90
2018-12-31T03:31:32.500Z,4.87
2018-12-31T03:34:00.954Z,4.94
2018-12-31T03:36:29.373Z,4.96
2018-12-31T03:38:57.824Z,4.99
2018-12-31T03:41:26.244Z,4.99
2018-12-31T03:43:54.704Z,5.03
2018-12-31T03:46:23.118Z,5.07
2018-12-31T03:48:51.563Z,5.07
2018-12-31T03:51:20.058Z,5.05
2018-12-31T03:53:48.509Z,5.12
2018-12-31T03:56:16.933Z,5.14
2018-12-31T03:58:45.391Z,5.14
2018-12-31T04:01:13.806Z,5.14
2018-12-31T04:03:42.251Z,5.12
2018-12-31T04:06:10.676Z,5.18
2018-12-31T04:08:39.124Z,5.18
2018-12-31T04:11:07.552Z,5.19
2018-12-31T04:13:36.007Z,5.19
2018-12-31T04:16:04.435Z,5.23
2018-12-31T04:18:32.889Z,5.24
2018-12-31T04:21:01.388Z,5.24
2018-12-31T04:23:29.865Z,5.28
2018-12-31T04:25:58.294Z,5.28
2018-12-31T04:28:26.720Z,5.28
2018-12-31T04:30:55.166Z,5.28
2018-12-31T04:33:23.592Z,5.27
2018-12-31T04:35:52.045Z,5.23
2018-12-31T04:38:20.476Z,5.29
2018-12-31T04:40:48.935Z,5.29
2018-12-31T04:43:17.360Z,5.30
2018-12-31T04:45:45.812Z,5.32
2018-12-31T04:48:14.237Z,5.31
2018-12-31T04:50:42.683Z,5.31
2018-12-31T04:53:11.107Z,5.29
2018-12-31T04:55:44.403Z,5.31
2018-12-31T04:58:09.703Z,5.32
2018-12-31T05:00:38.150Z,5.32
2018-12-31T05:03:06.575Z,5.32
2018-12-31T05:05:35.030Z,5.27
2018-12-31T05:08:03.527Z,5.30
2018-12-31T05:10:31.977Z,5.25
2018-12-31T05:13:00.399Z,5.29
2018-12-31T05:15:28.851Z,5.29
2018-12-31T05:17:57.273Z,5.31
2018-12-31T05:20:25.726Z,5.28
2018-12-31T05:22:54.155Z,5.33
2018-12-31T05:25:22.576Z,5.29
2018-12-31T05:27:51.028Z,5.30
2018-12-31T05:30:19.523Z,5.35
2018-12-31T05:32:47.972Z,5.33
2018-12-31T05:35:16.398Z,5.30
2018-12-31T05:37:44.858Z,5.30
2018-12-31T05:40:13.277Z,5.30
2018-12-31T05:42:41.828Z,5.26
2018-12-31T05:45:10.228Z,5.30
2018-12-31T05:47:38.678Z,5.31
2018-12-31T05:50:07.174Z,5.26
2018-12-31T05:52:35.629Z,5.26
2018-12-31T05:55:04.192Z,5.28
2018-12-31T05:57:32.647Z,5.23
2018-12-31T06:00:01.071Z,5.23
2018-12-31T06:02:29.522Z,5.22
2018-12-31T06:04:57.939Z,5.21
2018-12-31T06:07:26.389Z,5.21
2018-12-31T06:09:54.818Z,5.24
2018-12-31T06:12:23.271Z,5.24
2018-12-31T06:14:51.694Z,5.24
2018-12-31T06:17:20.151Z,5.25
2018-12-31T06:19:48.571Z,5.22
2018-12-31T06:22:17.023Z,5.22
2018-12-31T06:24:45.447Z,5.20
2018-12-31T06:27:13.898Z,5.21
2018-12-31T06:29:42.317Z,5.20
2018-12-31T06:32:10.782Z,5.20
2018-12-31T06:34:39.207Z,5.20
2018-12-31T06:37:07.634Z,5.19
2018-12-31T06:39:36.085Z,5.15
2018-12-31T06:42:04.512Z,5.20
2018-12-31T06:44:32.959Z,5.18
2018-12-31T06:47:01.386Z,5.18
2018-12-31T06:49:29.840Z,5.21
2018-12-31T06:51:58.266Z,5.22
2018-12-31T06:54:26.720Z,5.22
2018-12-31T06:56:55.140Z,5.22
2018-12-31T06:59:23.598Z,5.23
2018-12-31T07:01:52.016Z,5.25
2018-12-31T07:04:20.465Z,5.21
2018-12-31T07:06:48.898Z,5.25
2018-12-31T07:09:17.355Z,5.25
2018-12-31T07:11:45.785Z,5.30
2018-12-31T07:14:14.236Z,5.29
2018-12-31T07:16:42.660Z,5.34
2018-12-31T07:19:11.113Z,5.34
2018-12-31T07:21:39.542Z,5.35
2018-12-31T07:24:07.992Z,5.35
2018-12-31T07:26:36.419Z,5.32
2018-12-31T07:29:04.876Z,5.32
2018-12-31T07:31:33.315Z,5.37
2018-12-31T07:34:01.765Z,5.33
2018-12-31T07:36:30.192Z,5.38
2018-12-31T07:38:58.644Z,5.35
2018-12-31T07:41:27.071Z,5.40
2018-12-31T07:43:55.492Z,5.42
2018-12-31T07:46:23.943Z,5.43
2018-12-31T07:48:52.364Z,5.45
2018-12-31T07:51:20.815Z,5.47
2018-12-31T07:53:49.243Z,5.50
2018-12-31T07:56:17.689Z,5.53
2018-12-31T07:58:46.118Z,5.53
2018-12-31T08:01:14.567Z,5.55
2018-12-31T08:03:42.989Z,5.58
2018-12-31T08:06:11.443Z,5.60
2018-12-31T08:08:39.872Z,5.63
2018-12-31T08:11:08.399Z,5.64
2018-12-31T08:13:36.898Z,5.63
2018-12-31T08:16:05.348Z,5.70
2018-12-31T08:18:33.772Z,5.72
2018-12-31T08:21:02.215Z,5.72
2018-12-31T08:23:30.637Z,5.74
2018-12-31T08:25:59.095Z,5.75
2018-12-31T08:28:27.516Z,5.77
2018-12-31T08:30:55.969Z,5.77
2018-12-31T08:33:24.401Z,5.78
2018-12-31T08:35:52.846Z,5.78
2018-12-31T08:38:21.266Z,5.83
2018-12-31T08:40:49.716Z,5.82
2018-12-31T08:43:18.139Z,5.84
2018-12-31T08:45:46.589Z,5.85
2018-12-31T08:48:15.015Z,5.84
2018-12-31T08:50:43.464Z,5.85
2018-12-31T08:53:11.896Z,5.87
2018-12-31T08:55:40.385Z,5.85
2018-12-31T08:58:08.904Z,5.88
2018-12-31T09:00:37.328Z,5.92
2018-12-31T09:03:05.781Z,6.01
2018-12-31T09:05:34.208Z,6.10
2018-12-31T09:08:02.661Z,6.18
2018-12-31T09:10:31.094Z,6.22
2018-12-31T09:12:59.550Z,6.22
2018-12-31T09:15:27.982Z,6.21
2018-12-31T09:17:56.426Z,6.21
2018-12-31T09:20:24.858Z,6.23
2018-12-31T09:22:53.369Z,6.20
2018-12-31T09:25:21.791Z,6.19
2018-12-31T09:27:50.243Z,6.22
2018-12-31T09:30:18.667Z,6.27
2018-12-31T09:32:47.123Z,6.34
2018-12-31T09:35:15.545Z,6.39
2018-12-31T09:37:44.005Z,6.40
2018-12-31T09:40:12.430Z,6.41
2018-12-31T09:42:40.889Z,6.42
2018-12-31T09:45:09.319Z,6.40
2018-12-31T09:47:37.747Z,6.42
2018-12-31T09:50:06.268Z,6.43
2018-12-31T09:52:34.694Z,6.45
2018-12-31T09:55:03.143Z,6.49
2018-12-31T09:57:31.567Z,6.51
2018-12-31T10:00:00.019Z,6.55
2018-12-31T10:02:28.440Z,6.60
2018-12-31T10:04:56.884Z,6.59
2018-12-31T10:07:25.313Z,6.60
2018-12-31T10:09:53.764Z,6.65
2018-12-31T10:12:22.187Z,6.68
2018-12-31T10:14:50.638Z,6.68
2018-12-31T10:17:19.061Z,6.70
2018-12-31T10:19:47.518Z,6.71
2018-12-31T10:22:15.939Z,6.73
2018-12-31T10:24:44.390Z,6.73
2018-12-31T10:27:12.812Z,6.75
2018-12-31T10:29:41.266Z,6.78
2018-12-31T10:32:09.692Z,6.77
2018-12-31T10:34:38.150Z,6.81
2018-12-31T10:37:06.576Z,6.87
2018-12-31T10:39:35.021Z,6.89
2018-12-31T10:42:03.443Z,6.93
2018-12-31T10:44:31.861Z,6.90
2018-12-31T10:47:00.314Z,6.95
2018-12-31T10:49:28.733Z,6.97
2018-12-31T10:51:57.181Z,7.04
2018-12-31T10:54:25.600Z,7.08
2018-12-31T10:56:54.061Z,7.07
2018-12-31T10:59:22.471Z,7.11
2018-12-31T11:01:50.916Z,7.15
2018-12-31T11:04:19.334Z,7.22
2018-12-31T11:06:47.778Z,7.19
2018-12-31T11:09:16.191Z,7.12
2018-12-31T11:11:44.638Z,7.11
2018-12-31T11:14:13.054Z,7.08
2018-12-31T11:16:41.503Z,7.09
2018-12-31T11:19:09.928Z,7.07
2018-12-31T11:21:38.373Z,7.08
2018-12-31T11:24:06.793Z,7.06
2018-12-31T11:26:35.238Z,7.08
2018-12-31T11:29:03.651Z,7.07
2018-12-31T11:31:32.102Z,7.07
2018-12-31T11:34:00.522Z,7.08
2018-12-31T11:36:28.968Z,7.13
2018-12-31T11:38:57.393Z,7.14
2018-12-31T11:41:25.847Z,7.13
2018-12-31T11:43:54.265Z,7.10
2018-12-31T11:46:22.713Z,7.09
2018-12-31T11:48:51.123Z,7.13
2018-12-31T11:51:19.576Z,7.13
2018-12-31T11:53:47.994Z,7.13
2018-12-31T11:56:16.418Z,7.11
2018-12-31T11:58:44.864Z,7.08
2018-12-31T12:01:13.284Z,7.08
2018-12-31T12:03:41.737Z,7.08
2018-12-31T12:06:10.161Z,7.07
2018-12-31T12:08:38.602Z,7.10
2018-12-31T12:11:07.098Z,7.15
2018-12-31T12:13:35.558Z,7.21
2018-12-31T12:16:04.051Z,7.24
2018-12-31T12:18:32.511Z,7.28
2018-12-31T12:21:00.920Z,7.28
2018-12-31T12:23:29.371Z,7.28
2018-12-31T12:25:57.793Z,7.31
2018-12-31T12:28:26.239Z,7.31
2018-12-31T12:30:54.666Z,7.28
2018-12-31T12:33:23.120Z,7.25
2018-12-31T12:35:51.542Z,7.22
2018-12-31T12:38:20.867Z,7.23
2018-12-31T12:40:49.298Z,7.25
2018-12-31T12:43:17.753Z,7.25
2018-12-31T12:45:46.240Z,7.26
2018-12-31T12:48:14.689Z,7.26
2018-12-31T12:50:43.294Z,7.29
2018-12-31T12:53:11.741Z,7.31
2018-12-31T12:55:40.168Z,7.35
2018-12-31T12:58:08.593Z,7.41
2018-12-31T13:00:37.050Z,7.50
2018-12-31T13:03:05.846Z,7.53
2018-12-31T13:05:34.300Z,7.56
2018-12-31T13:08:02.727Z,7.55
2018-12-31T13:10:31.179Z,7.53
2018-12-31T13:12:59.601Z,7.52
2018-12-31T13:15:28.428Z,7.52
2018-12-31T13:17:56.856Z,7.51
2018-12-31T13:20:25.380Z,7.52
2018-12-31T13:22:53.871Z,7.51
2018-12-31T13:25:22.320Z,7.53
2018-12-31T13:27:50.741Z,7.52
2018-12-31T13:30:19.195Z,7.53
2018-12-31T13:32:47.625Z,7.52
2018-12-31T13:35:16.071Z,7.54
2018-12-31T13:37:44.498Z,7.55
2018-12-31T13:40:12.953Z,7.56
2018-12-31T13:42:41.373Z,7.56
2018-12-31T13:45:09.823Z,7.56
2018-12-31T13:47:38.251Z,7.56
2018-12-31T13:50:06.774Z,7.55
2018-12-31T13:52:35.195Z,7.54
2018-12-31T13:55:05.431Z,7.52
2018-12-31T13:57:33.858Z,7.51
2018-12-31T14:00:02.315Z,7.50
2018-12-31T14:02:30.739Z,7.49
2018-12-31T14:04:59.191Z,7.49
2018-12-31T14:07:27.789Z,7.53
2018-12-31T14:09:56.254Z,7.54
2018-12-31T14:12:24.683Z,7.56
2018-12-31T14:14:53.119Z,7.56
2018-12-31T14:17:21.572Z,7.59
2018-12-31T14:19:50.275Z,7.59
2018-12-31T14:22:18.731Z,7.59
2018-12-31T14:24:47.159Z,7.58
2018-12-31T14:27:15.619Z,7.59
2018-12-31T14:29:44.035Z,7.58
2018-12-31T14:32:12.961Z,7.59
2018-12-31T14:34:41.382Z,7.59
2018-12-31T14:37:09.837Z,7.58
2018-12-31T14:39:38.258Z,7.58
2018-12-31T14:42:06.716Z,7.57
2018-12-31T14:44:35.414Z,7.57
2018-12-31T14:47:03.864Z,7.59
2018-12-31T14:49:32.278Z,7.59
2018-12-31T14:52:00.723Z,7.59
2018-12-31T14:54:29.146Z,7.60
2018-12-31T14:56:57.599Z,7.62
2018-12-31T14:59:26.027Z,7.61
2018-12-31T15:01:54.477Z,7.60
2018-12-31T15:04:22.897Z,7.62
2018-12-31T15:06:51.424Z,7.58
2018-12-31T15:09:19.843Z,7.57
2018-12-31T15:11:48.373Z,7.59
2018-12-31T15:14:16.777Z,7.59
2018-12-31T15:16:45.363Z,7.60
2018-12-31T15:19:13.788Z,7.60
2018-12-31T15:21:42.242Z,7.61
2018-12-31T15:24:10.745Z,7.60
2018-12-31T15:26:39.192Z,7.62
2018-12-31T15:29:07.615Z,7.62
2018-12-31T15:31:36.059Z,7.61
2018-12-31T15:34:04.549Z,7.65
2018-12-31T15:36:33.371Z,7.65
2018-12-31T15:39:01.788Z,7.62
2018-12-31T15:41:30.235Z,7.62
2018-12-31T15:43:58.656Z,7.63
2018-12-31T15:46:27.102Z,7.64
2018-12-31T15:48:55.526Z,7.63
2018-12-31T15:51:23.947Z,7.63
2018-12-31T15:53:52.389Z,7.65
2018-12-31T15:56:20.879Z,7.65
2018-12-31T15:58:49.355Z,7.65
2018-12-31T16:01:17.772Z,7.64
2018-12-31T16:03:46.219Z,7.64
2018-12-31T16:06:14.643Z,7.66
2018-12-31T16:08:43.090Z,7.65
2018-12-31T16:11:11.561Z,7.64
2018-12-31T16:13:40.031Z,7.64
2018-12-31T16:16:08.732Z,7.64
2018-12-31T16:18:37.170Z,7.64
2018-12-31T16:21:05.912Z,7.65
2018-12-31T16:23:34.430Z,7.63
2018-12-31T16:26:02.906Z,7.63
2018-12-31T16:28:31.734Z,7.62
2018-12-31T16:31:00.157Z,7.66
2018-12-31T16:33:28.607Z,7.66
2018-12-31T16:35:57.032Z,7.66
2018-12-31T16:38:25.487Z,7.65
2018-12-31T16:40:54.936Z,7.66
2018-12-31T16:43:23.434Z,7.64
2018-12-31T16:45:51.854Z,7.63
2018-12-31T16:48:20.313Z,7.63
2018-12-31T16:50:48.730Z,7.62
2018-12-31T16:53:17.174Z,7.63
2018-12-31T16:55:45.598Z,7.63
2018-12-31T16:58:14.044Z,7.62
2018-12-31T17:00:42.468Z,7.62
2018-12-31T17:03:10.915Z,7.63
2018-12-31T17:05:39.331Z,7.64
2018-12-31T17:08:07.961Z,7.68
2018-12-31T17:10:36.374Z,7.66
2018-12-31T17:13:04.827Z,7.65
2018-12-31T17:15:33.255Z,7.65
2018-12-31T17:18:01.705Z,7.66
2018-12-31T17:20:30.125Z,7.68
2018-12-31T17:22:58.573Z,7.70
2018-12-31T17:25:26.991Z,7.73
2018-12-31T17:27:55.445Z,7.75
2018-12-31T17:30:23.863Z,7.76
2018-12-31T17:32:52.308Z,7.75
2018-12-31T17:35:20.723Z,7.74
2018-12-31T17:37:49.216Z,7.78
2018-12-31T17:40:17.679Z,7.79
2018-12-31T17:42:46.124Z,7.80
2018-12-31T17:45:14.544Z,7.80
2018-12-31T17:47:44.718Z,7.79
2018-12-31T17:50:13.144Z,7.80
2018-12-31T17:52:41.599Z,7.81
2018-12-31T17:55:10.024Z,7.81
2018-12-31T17:57:38.501Z,7.82
2018-12-31T18:00:09.504Z,7.82
2018-12-31T18:02:37.930Z,7.83
2018-12-31T18:05:06.462Z,7.85
2018-12-31T18:07:34.882Z,7.86
2018-12-31T18:10:03.326Z,7.86
2018-12-31T18:12:31.751Z,7.82
2018-12-31T18:15:00.269Z,7.81
2018-12-31T18:17:28.698Z,7.79
2018-12-31T18:19:58.835Z,7.82
2018-12-31T18:22:27.344Z,7.85
2018-12-31T18:24:55.795Z,7.85
2018-12-31T18:27:24.213Z,7.87
2018-12-31T18:29:52.657Z,7.88
2018-12-31T18:32:21.076Z,7.86
2018-12-31T18:34:49.528Z,7.87
2018-12-31T18:37:17.945Z,7.89
2018-12-31T18:39:49.331Z,7.88
2018-12-31T18:42:18.639Z,7.89
2018-12-31T18:44:47.138Z,7.89
2018-12-31T18:47:15.571Z,7.89
2018-12-31T18:49:44.012Z,7.90
2018-12-31T18:52:12.514Z,7.94
2018-12-31T18:54:40.974Z,7.93
2018-12-31T18:57:09.396Z,7.98
2018-12-31T18:59:37.822Z,7.99
2018-12-31T19:02:06.333Z,8.04
2018-12-31T19:04:35.134Z,8.05
2018-12-31T19:07:03.655Z,8.10
2018-12-31T19:09:32.074Z,8.12
2018-12-31T19:12:00.522Z,8.14
2018-12-31T19:14:28.942Z,8.10
2018-12-31T19:16:57.397Z,8.09
2018-12-31T19:19:25.826Z,8.06
2018-12-31T19:21:54.268Z,8.07
2018-12-31T19:24:22.694Z,8.10
2018-12-31T19:26:52.964Z,8.10
2018-12-31T19:29:21.287Z,8.11
2018-12-31T19:31:49.731Z,8.10
2018-12-31T19:34:18.153Z,8.09
2018-12-31T19:36:46.606Z,8.16
2018-12-31T19:39:15.026Z,8.15
2018-12-31T19:41:43.475Z,8.20
2018-12-31T19:44:12.073Z,8.33
2018-12-31T19:46:40.523Z,8.32
2018-12-31T19:49:08.937Z,8.31
2018-12-31T19:51:37.391Z,8.29
2018-12-31T19:54:05.811Z,8.25
2018-12-31T19:56:34.259Z,8.27
2018-12-31T19:59:02.677Z,8.26
2018-12-31T20:01:31.123Z,8.24
2018-12-31T20:03:59.552Z,8.22
2018-12-31T20:06:28.000Z,8.20
2018-12-31T20:08:56.418Z,8.21
2018-12-31T20:11:25.035Z,8.19
2018-12-31T20:13:53.457Z,8.16
2018-12-31T20:16:21.905Z,8.17
2018-12-31T20:18:50.342Z,8.12
2018-12-31T20:21:18.792Z,8.09
2018-12-31T20:23:47.292Z,8.11
2018-12-31T20:26:15.745Z,8.09
2018-12-31T20:28:44.165Z,8.07
2018-12-31T20:31:12.606Z,8.05
2018-12-31T20:33:41.028Z,8.03
2018-12-31T20:36:09.472Z,8.04
2018-12-31T20:38:38.278Z,8.08
2018-12-31T20:41:06.719Z,8.05
2018-12-31T20:43:35.141Z,8.05
2018-12-31T20:46:03.587Z,8.02
2018-12-31T20:48:31.999Z,8.04
2018-12-31T20:51:00.459Z,8.06
2018-12-31T20:53:29.260Z,8.06
2018-12-31T20:55:57.681Z,8.03
2018-12-31T20:58:26.123Z,8.01
2018-12-31T21:00:54.538Z,8.00
2018-12-31T21:03:22.981Z,7.98
2018-12-31T21:05:51.399Z,7.97
2018-12-31T21:08:19.845Z,7.94
2018-12-31T21:10:48.255Z,7.88
2018-12-31T21:13:16.693Z,7.86
2018-12-31T21:15:45.110Z,7.84
2018-12-31T21:18:13.561Z,7.83
2018-12-31T21:20:42.360Z,7.80
2018-12-31T21:23:10.876Z,7.73
2018-12-31T21:25:39.295Z,7.70
2018-12-31T21:28:07.730Z,7.71
2018-12-31T21:30:36.223Z,7.67
2018-12-31T21:33:04.665Z,7.67
2018-12-31T21:35:33.088Z,7.69
2018-12-31T21:38:01.537Z,7.67
2018-12-31T21:40:29.955Z,7.64
2018-12-31T21:42:58.397Z,7.62
2018-12-31T21:45:26.816Z,7.62
2018-12-31T21:47:55.639Z,7.63
2018-12-31T21:50:24.081Z,7.64
2018-12-31T21:52:52.505Z,7.64
2018-12-31T21:55:20.927Z,7.62
2018-12-31T21:57:49.347Z,7.61
2018-12-31T22:00:17.797Z,7.59
2018-12-31T22:02:46.217Z,7.59
2018-12-31T22:05:14.661Z,7.57
2018-12-31T22:07:43.080Z,7.53
2018-12-31T22:10:11.529Z,7.52
2018-12-31T22:12:39.949Z,7.52
2018-12-31T22:15:09.446Z,7.52
2018-12-31T22:17:37.879Z,7.54
2018-12-31T22:20:08.864Z,7.53
2018-12-31T22:22:37.290Z,7.53
2018-12-31T22:25:06.582Z,7.54
2018-12-31T22:27:35.282Z,7.58
2018-12-31T22:30:04.074Z,7.57
2018-12-31T22:32:32.495Z,7.57
2018-12-31T22:35:00.939Z,7.58
2018-12-31T22:37:29.354Z,7.58
2018-12-31T22:39:57.806Z,7.56
2018-12-31T22:42:26.222Z,7.56
2018-12-31T22:44:54.668Z,7.53
2018-12-31T22:47:23.085Z,7.47
2018-12-31T22:49:51.536Z,7.44
2018-12-31T22:52:19.955Z,7.42
2018-12-31T22:54:48.403Z,7.45
2018-12-31T22:57:16.828Z,7.42
2018-12-31T22:59:45.267Z,7.41
2018-12-31T23:02:13.686Z,7.43
2018-12-31T23:04:42.132Z,7.42
2018-12-31T23:07:10.702Z,7.43
2018-12-31T23:09:41.368Z,7.43
2018-12-31T23:12:09.375Z,7.40
2018-12-31T23:14:37.824Z,7.43
2018-12-31T23:17:06.254Z,7.44
2018-12-31T23:19:41.656Z,7.45
2018-12-31T23:22:05.202Z,7.46
2018-12-31T23:24:33.625Z,7.42
2018-12-31T23:27:02.139Z,7.47
2018-12-31T23:29:30.568Z,7.47
2018-12-31T23:31:59.016Z,7.47
2018-12-31T23:34:27.431Z,7.50
2018-12-31T23:36:55.881Z,7.54
2018-12-31T23:39:24.297Z,7.53
2018-12-31T23:41:52.751Z,7.52
2018-12-31T23:44:21.176Z,7.48
2018-12-31T23:46:49.622Z,7.55
2018-12-31T23:49:18.063Z,7.55
2018-12-31T23:51:46.505Z,7.56
2018-12-31T23:54:14.926Z,7.60
2018-12-31T23:56:43.371Z,7.57
2018-12-31T23:59:12.071Z,7.57
